Time;durP1;ratioP1;P1;durP2;ratioP2;P2;SDS_P1;SDS_P2;PMS_P1;PMS_P2;Temp;Humidity;BMP_temperature;BMP_pressure;BME280_temperature;BME280_humidity;BME280_pressure;Samples;Min_cycle;Max_cycle;Signal;HPM_P1;HPM_P2
2021/08/13 00:01:20;;;;;;;5.78;3.40;;;20.10;99.90;;;;;;5064845;28;20032;-71
2021/08/13 00:03:46;;;;;;;5.72;2.67;;;20.10;99.90;;;;;;5064704;28;20048;-70
2021/08/13 00:06:12;;;;;;;7.57;3.85;;;20.10;99.90;;;;;;5064624;28;20083;-72
2021/08/13 00:08:38;;;;;;;5.97;3.35;;;20.10;99.90;;;;;;5064640;28;20078;-71
2021/08/13 00:11:04;;;;;;;5.30;3.47;;;20.10;99.90;;;;;;5064264;28;20071;-72
2021/08/13 00:13:29;;;;;;;5.25;3.17;;;20.10;99.90;;;;;;5055314;28;20025;-72
2021/08/13 00:15:56;;;;;;;7.07;3.67;;;20.10;99.90;;;;;;5044598;28;20068;-73
2021/08/13 00:18:21;;;;;;;8.98;3.92;;;20.10;99.90;;;;;;5044272;28;20056;-70
2021/08/13 00:20:47;;;;;;;4.75;3.10;;;20.00;99.90;;;;;;5044378;28;20403;-71
2021/08/13 00:23:13;;;;;;;5.70;3.13;;;19.90;99.90;;;;;;5044473;28;20030;-70
2021/08/13 00:25:39;;;;;;;6.80;4.00;;;19.90;99.90;;;;;;5044401;28;20033;-70
2021/08/13 00:28:04;;;;;;;5.57;3.08;;;19.90;99.90;;;;;;5042977;28;20029;-71
2021/08/13 00:30:30;;;;;;;6.97;3.85;;;19.90;99.90;;;;;;5044491;28;20068;-72
2021/08/13 00:32:56;;;;;;;5.88;3.42;;;19.80;99.90;;;;;;5043192;28;20025;-71
2021/08/13 00:35:22;;;;;;;5.68;3.22;;;19.80;99.90;;;;;;5043085;28;20038;-70
2021/08/13 00:37:48;;;;;;;10.07;3.75;;;19.80;99.90;;;;;;5044320;28;20040;-70
2021/08/13 00:40:14;;;;;;;6.18;2.97;;;19.80;99.90;;;;;;5045352;28;20043;-71
2021/08/13 00:42:40;;;;;;;8.82;3.92;;;19.80;99.90;;;;;;5048283;28;20025;-71
2021/08/13 00:45:07;;;;;;;8.18;3.45;;;19.80;99.90;;;;;;5048280;28;20045;-72
2021/08/13 00:47:32;;;;;;;10.68;3.53;;;19.80;99.90;;;;;;5048109;28;20021;-70
2021/08/13 00:49:58;;;;;;;8.57;3.67;;;19.80;99.90;;;;;;5048234;28;20089;-73
2021/08/13 00:52:24;;;;;;;7.85;4.28;;;19.80;99.90;;;;;;5048100;28;20056;-72
2021/08/13 00:54:50;;;;;;;7.78;3.92;;;19.70;99.90;;;;;;5047885;28;20040;-71
2021/08/13 00:57:16;;;;;;;8.88;4.05;;;19.70;99.90;;;;;;5047823;28;20065;-70
2021/08/13 00:59:42;;;;;;;8.13;4.05;;;19.60;99.90;;;;;;5047819;28;20036;-71
2021/08/13 01:02:08;;;;;;;8.00;4.68;;;19.50;99.90;;;;;;5047762;28;20030;-70
2021/08/13 01:04:34;;;;;;;11.68;5.20;;;19.50;99.90;;;;;;5047685;28;20045;-70
2021/08/13 01:07:02;;;;;;;9.15;4.43;;;19.40;99.90;;;;;;5047820;28;20040;-72
2021/08/13 01:09:28;;;;;;;12.75;5.18;;;19.30;99.90;;;;;;5047900;28;20104;-70
2021/08/13 01:12:03;;;;;;;9.40;5.47;;;19.30;99.90;;;;;;5047712;28;20389;-71
2021/08/13 01:14:44;;;;;;;8.68;4.57;;;19.20;99.90;;;;;;5047792;28;20025;-71
2021/08/13 01:17:11;;;;;;;17.63;5.63;;;19.10;99.90;;;;;;5047223;28;20056;-71
2021/08/13 01:20:03;;;;;;;7.10;4.55;;;19.10;99.90;;;;;;5047247;28;20394;-69
2021/08/13 01:22:57;;;;;;;11.18;5.13;;;19.00;99.90;;;;;;5047544;28;20040;-71
2021/08/13 01:25:28;;;;;;;21.25;5.15;;;19.00;99.90;;;;;;5040417;28;20441;-70
2021/08/13 01:27:55;;;;;;;7.57;4.75;;;18.90;99.90;;;;;;5047499;28;20018;-72
2021/08/13 01:30:22;;;;;;;12.65;5.05;;;18.90;99.90;;;;;;5047432;28;20040;-70
2021/08/13 01:32:59;;;;;;;11.95;5.70;;;18.80;99.90;;;;;;5045889;28;20474;-71
2021/08/13 01:35:28;;;;;;;13.70;5.63;;;18.70;99.90;;;;;;5047430;28;20073;-70
2021/08/13 01:37:58;;;;;;;11.85;6.50;;;18.70;99.90;;;;;;5047327;28;20030;-71
2021/08/13 01:40:26;;;;;;;12.77;5.85;;;18.60;99.90;;;;;;5047135;28;20112;-70
2021/08/13 01:42:54;;;;;;;9.75;5.55;;;18.60;99.90;;;;;;5047191;28;20022;-69
2021/08/13 01:45:26;;;;;;;9.98;5.72;;;18.50;99.90;;;;;;5045737;28;20467;-70
2021/08/13 01:47:53;;;;;;;15.88;6.07;;;18.50;99.90;;;;;;5047160;28;20027;-72
2021/08/13 01:50:20;;;;;;;10.73;5.45;;;18.50;99.90;;;;;;5046916;28;20040;-71
2021/08/13 01:52:47;;;;;;;10.82;5.53;;;18.40;99.90;;;;;;5046735;28;20379;-70
2021/08/13 01:55:14;;;;;;;9.90;5.97;;;18.40;99.90;;;;;;5046599;28;20064;-70
2021/08/13 01:57:39;;;;;;;11.75;5.32;;;18.40;99.90;;;;;;5046731;28;20134;-71
2021/08/13 02:00:06;;;;;;;8.68;4.57;;;18.40;99.90;;;;;;5046640;28;20367;-71
2021/08/13 02:02:35;;;;;;;7.05;4.55;;;18.40;99.90;;;;;;5044899;28;20478;-70
2021/08/13 02:05:03;;;;;;;6.68;4.03;;;18.40;99.90;;;;;;5046698;28;20032;-71
2021/08/13 02:07:31;;;;;;;10.60;5.32;;;18.40;99.90;;;;;;5046873;28;20355;-70
2021/08/13 02:09:58;;;;;;;13.52;5.50;;;18.30;99.90;;;;;;5045249;28;20235;-71
2021/08/13 02:12:24;;;;;;;11.18;5.35;;;18.30;99.90;;;;;;5045181;28;20033;-71
2021/08/13 02:14:50;;;;;;;8.73;4.53;;;18.30;99.90;;;;;;5046555;28;20026;-71
2021/08/13 02:17:19;;;;;;;13.23;5.68;;;18.30;99.90;;;;;;5046121;28;20052;-72
2021/08/13 02:20:07;;;;;;;9.93;5.32;;;18.30;99.90;;;;;;5046227;28;20021;-72
2021/08/13 02:22:33;;;;;;;10.60;5.50;;;18.20;99.90;;;;;;5046476;28;20068;-71
2021/08/13 02:24:59;;;;;;;7.18;4.20;;;18.20;99.90;;;;;;5046288;28;20030;-71
2021/08/13 02:27:26;;;;;;;8.90;4.45;;;18.20;99.90;;;;;;5046480;28;20090;-71
2021/08/13 02:29:52;;;;;;;9.25;4.10;;;18.20;99.90;;;;;;5046263;28;20025;-70
2021/08/13 02:32:18;;;;;;;8.43;4.55;;;18.20;99.90;;;;;;5046055;28;20031;-72
2021/08/13 02:34:43;;;;;;;8.10;4.63;;;18.10;99.90;;;;;;5046135;28;20041;-71
2021/08/13 02:37:25;;;;;;;10.65;5.80;;;18.10;99.90;;;;;;5046027;28;20104;-70
2021/08/13 02:39:59;;;;;;;9.02;5.40;;;18.10;99.90;;;;;;5046013;28;20064;-70
2021/08/13 02:42:49;;;;;;;12.70;5.70;;;18.10;99.90;;;;;;5046230;28;20025;-72
2021/08/13 02:45:19;;;;;;;9.13;4.40;;;18.00;99.90;;;;;;5045799;28;20279;-71
2021/08/13 02:47:47;;;;;;;12.05;4.90;;;18.10;99.90;;;;;;5046028;28;20034;-71
2021/08/13 02:50:13;;;;;;;14.20;4.65;;;18.00;99.90;;;;;;5044475;28;20060;-70
2021/08/13 02:52:50;;;;;;;9.07;4.82;;;18.00;99.90;;;;;;5045608;28;20036;-70
2021/08/13 02:55:19;;;;;;;9.48;5.35;;;17.90;99.90;;;;;;5045604;28;20033;-72
2021/08/13 02:57:50;;;;;;;8.45;5.22;;;17.90;99.90;;;;;;5045578;28;20021;-71
2021/08/13 03:00:16;;;;;;;8.38;5.28;;;17.90;99.90;;;;;;5045522;28;20026;-70
2021/08/13 03:02:45;;;;;;;11.18;6.90;;;17.90;99.90;;;;;;5045204;28;20094;-70
2021/08/13 03:05:11;;;;;;;14.02;5.18;;;18.00;99.90;;;;;;5045585;28;20029;-70
2021/08/13 03:07:39;;;;;;;13.70;7.80;;;17.90;99.90;;;;;;5045511;28;20025;-70
2021/08/13 03:10:05;;;;;;;12.93;5.65;;;18.00;99.90;;;;;;5044126;28;20160;-71
2021/08/13 03:12:31;;;;;;;13.82;6.88;;;17.90;99.90;;;;;;5044128;28;20041;-70
2021/08/13 03:14:59;;;;;;;13.25;7.15;;;17.90;99.90;;;;;;5045497;28;20048;-71
2021/08/13 03:17:25;;;;;;;12.48;6.88;;;17.90;99.90;;;;;;5045277;28;20069;-70
2021/08/13 03:19:51;;;;;;;13.07;6.10;;;17.90;99.90;;;;;;5045200;28;20048;-70
2021/08/13 03:22:19;;;;;;;14.45;6.55;;;17.90;99.90;;;;;;5045156;28;20085;-70
2021/08/13 03:24:46;;;;;;;10.82;6.30;;;17.90;99.90;;;;;;5045032;28;20041;-70
2021/08/13 03:27:11;;;;;;;10.43;5.97;;;17.80;99.90;;;;;;5045135;28;20030;-71
2021/08/13 03:29:37;;;;;;;12.02;6.03;;;17.80;99.90;;;;;;5045164;28;20030;-70
2021/08/13 03:32:04;;;;;;;16.67;6.70;;;17.80;99.90;;;;;;5043899;28;20022;-70
2021/08/13 03:34:30;;;;;;;12.18;7.07;;;17.80;99.90;;;;;;5045148;28;20029;-72
2021/08/13 03:36:57;;;;;;;10.32;6.18;;;17.70;99.90;;;;;;5045145;28;20041;-72
2021/08/13 03:39:23;;;;;;;12.98;6.18;;;17.70;99.90;;;;;;5045144;28;20036;-71
2021/08/13 03:41:50;;;;;;;12.95;5.88;;;17.70;99.90;;;;;;5043959;28;20052;-71
2021/08/13 03:44:16;;;;;;;12.40;6.15;;;17.60;99.90;;;;;;5044898;28;20028;-70
2021/08/13 03:46:42;;;;;;;10.55;5.95;;;17.60;99.90;;;;;;5044760;28;20029;-70
2021/08/13 03:49:08;;;;;;;12.40;6.47;;;17.60;99.90;;;;;;5044778;28;20079;-71
2021/08/13 03:51:34;;;;;;;14.45;6.50;;;17.60;99.90;;;;;;5044620;28;20024;-71
2021/08/13 03:54:00;;;;;;;10.02;5.88;;;17.50;99.90;;;;;;5044789;28;20030;-71
2021/08/13 03:56:25;;;;;;;9.95;6.07;;;17.50;99.90;;;;;;5044790;28;20044;-71
2021/08/13 03:58:51;;;;;;;9.05;5.70;;;17.40;99.90;;;;;;5044783;28;20833;-70
2021/08/13 04:01:16;;;;;;;11.18;6.80;;;17.40;99.90;;;;;;5044691;28;20025;-70
2021/08/13 04:03:42;;;;;;;10.00;5.78;;;17.40;99.90;;;;;;5044556;28;20093;-70
2021/08/13 04:06:08;;;;;;;17.33;6.18;;;17.40;99.90;;;;;;5044690;28;20025;-72
2021/08/13 04:08:33;;;;;;;15.00;5.95;;;17.40;99.90;;;;;;5044623;28;20052;-71
2021/08/13 04:10:59;;;;;;;13.27;6.63;;;17.40;99.90;;;;;;5043525;28;20044;-72
2021/08/13 04:13:25;;;;;;;18.65;7.68;;;17.30;99.90;;;;;;5044722;28;20079;-72
2021/08/13 04:15:50;;;;;;;18.13;7.78;;;17.40;99.90;;;;;;5065322;28;20115;-71
2021/08/13 04:18:17;;;;;;;12.55;7.38;;;17.40;99.90;;;;;;5068308;28;20049;-70
2021/08/13 04:20:43;;;;;;;14.48;8.15;;;17.40;99.90;;;;;;5068681;28;20056;-69
2021/08/13 04:23:08;;;;;;;10.48;6.65;;;17.40;99.90;;;;;;5068500;28;20029;-71
2021/08/13 04:25:35;;;;;;;20.52;8.70;;;17.40;99.90;;;;;;5063751;28;20053;-70
2021/08/13 04:28:01;;;;;;;18.88;8.38;;;17.50;99.90;;;;;;5048586;28;20029;-70
2021/08/13 04:30:26;;;;;;;18.88;7.70;;;17.50;99.90;;;;;;5060967;28;20040;-69
2021/08/13 04:32:52;;;;;;;16.60;7.65;;;17.50;99.90;;;;;;5062102;28;20025;-69
2021/08/13 04:35:18;;;;;;;16.40;8.13;;;17.50;99.90;;;;;;5049547;28;20125;-69
2021/08/13 04:37:43;;;;;;;12.77;6.90;;;17.50;99.90;;;;;;5058036;28;20035;-69
2021/08/13 04:40:09;;;;;;;20.88;7.63;;;17.50;99.90;;;;;;5067608;28;20111;-69
2021/08/13 04:42:35;;;;;;;23.02;8.80;;;17.50;99.90;;;;;;5067348;28;20035;-70
2021/08/13 04:45:01;;;;;;;13.82;7.80;;;17.50;99.90;;;;;;5063372;28;20451;-69
2021/08/13 04:47:28;;;;;;;15.02;8.20;;;17.50;99.90;;;;;;5048122;28;20075;-70
2021/08/13 04:49:53;;;;;;;15.85;7.60;;;17.50;99.90;;;;;;5048258;28;20017;-69
2021/08/13 04:52:20;;;;;;;20.40;8.85;;;17.60;99.90;;;;;;5046667;28;20104;-69
2021/08/13 04:54:47;;;;;;;18.20;8.23;;;17.50;99.90;;;;;;5047350;28;20028;-70
2021/08/13 04:57:13;;;;;;;16.42;8.25;;;17.50;99.90;;;;;;5047740;28;20029;-69
2021/08/13 04:59:39;;;;;;;14.18;7.15;;;17.50;99.90;;;;;;5047820;28;20025;-69
2021/08/13 05:02:04;;;;;;;16.85;7.20;;;17.60;99.90;;;;;;5047189;28;20033;-69
2021/08/13 05:04:30;;;;;;;16.10;8.00;;;17.60;99.90;;;;;;5046975;28;20417;-70
2021/08/13 05:06:55;;;;;;;15.10;7.80;;;17.60;99.90;;;;;;5048023;28;20026;-69
2021/08/13 05:09:21;;;;;;;15.98;7.40;;;17.60;99.90;;;;;;5045745;28;20036;-69
2021/08/13 05:11:47;;;;;;;13.35;7.18;;;17.60;99.90;;;;;;5046192;28;20033;-69
2021/08/13 05:14:12;;;;;;;15.82;7.32;;;17.70;99.90;;;;;;5062734;28;20029;-69
2021/08/13 05:16:38;;;;;;;20.13;8.27;;;17.70;99.90;;;;;;5061846;28;20048;-70
2021/08/13 05:19:03;;;;;;;17.13;7.95;;;17.70;99.90;;;;;;5063192;28;20132;-71
2021/08/13 05:21:36;;;;;;;19.88;8.95;;;17.80;99.90;;;;;;5066510;28;20667;-69
2021/08/13 05:24:05;;;;;;;24.38;9.25;;;17.80;99.90;;;;;;5066960;28;20060;-69
2021/08/13 05:26:31;;;;;;;14.15;8.20;;;17.90;99.90;;;;;;5066766;28;20029;-70
2021/08/13 05:28:57;;;;;;;16.90;9.20;;;17.90;99.90;;;;;;5066998;28;20033;-71
2021/08/13 05:31:24;;;;;;;13.75;8.48;;;18.00;99.90;;;;;;5067044;28;20077;-70
2021/08/13 05:33:51;;;;;;;19.02;8.75;;;18.10;99.90;;;;;;5067068;28;20055;-70
2021/08/13 05:36:17;;;;;;;15.55;8.52;;;18.10;99.90;;;;;;5067127;28;20041;-70
2021/08/13 05:38:43;;;;;;;17.33;9.15;;;18.20;99.90;;;;;;5065971;28;20025;-70
2021/08/13 05:41:09;;;;;;;23.20;10.30;;;18.20;99.90;;;;;;5066942;28;20470;-70
2021/08/13 05:43:35;;;;;;;15.35;8.35;;;18.20;99.90;;;;;;5067129;28;20028;-71
2021/08/13 05:46:01;;;;;;;14.48;8.65;;;18.30;99.90;;;;;;5067181;28;20033;-72
2021/08/13 05:48:27;;;;;;;16.63;8.82;;;18.30;99.90;;;;;;5067177;28;20021;-71
2021/08/13 05:50:52;;;;;;;15.88;8.98;;;18.30;99.90;;;;;;5066865;28;20035;-70
2021/08/13 05:53:18;;;;;;;20.05;9.88;;;18.40;99.90;;;;;;5066586;28;20025;-70
2021/08/13 05:55:44;;;;;;;16.05;8.85;;;18.40;99.90;;;;;;5066413;28;20052;-70
2021/08/13 05:58:09;;;;;;;20.10;8.98;;;18.50;99.90;;;;;;5066814;28;20033;-71
2021/08/13 06:00:35;;;;;;;19.55;9.00;;;18.50;99.90;;;;;;5066581;28;20029;-71
2021/08/13 06:03:03;;;;;;;18.52;8.32;;;18.60;99.90;;;;;;5066808;28;20059;-71
2021/08/13 06:05:29;;;;;;;23.75;8.75;;;18.70;99.90;;;;;;5066860;28;20021;-71
2021/08/13 06:07:55;;;;;;;22.20;9.30;;;18.70;99.90;;;;;;5066262;28;20044;-72
2021/08/13 06:10:21;;;;;;;17.88;8.73;;;18.80;99.90;;;;;;5066259;28;20045;-71
2021/08/13 06:12:47;;;;;;;17.45;8.63;;;18.80;99.90;;;;;;5066476;28;20052;-70
2021/08/13 06:15:14;;;;;;;18.55;9.25;;;18.90;99.90;;;;;;5066352;28;20071;-70
2021/08/13 06:17:42;;;;;;;18.10;9.15;;;18.90;99.90;;;;;;5061045;28;20052;-71
2021/08/13 06:20:09;;;;;;;18.67;9.30;;;18.90;99.90;;;;;;5044301;28;20025;-70
2021/08/13 06:22:35;;;;;;;19.45;8.85;;;19.00;99.90;;;;;;5045364;28;20041;-70
2021/08/13 06:25:01;;;;;;;13.25;7.50;;;19.00;99.90;;;;;;5045941;28;20034;-71
2021/08/13 06:27:27;;;;;;;25.92;9.85;;;19.10;99.90;;;;;;5044814;28;20036;-71
2021/08/13 06:29:52;;;;;;;16.23;9.27;;;19.10;99.90;;;;;;5046110;28;20025;-70
2021/08/13 06:32:19;;;;;;;15.35;8.20;;;19.20;99.90;;;;;;5053104;28;20033;-72
2021/08/13 06:34:46;;;;;;;18.50;9.25;;;19.30;99.90;;;;;;5048991;28;20046;-70
2021/08/13 06:37:11;;;;;;;15.13;9.32;;;19.30;99.90;;;;;;5051072;28;20044;-71
2021/08/13 06:39:37;;;;;;;20.63;10.05;;;19.40;99.90;;;;;;5049334;28;20043;-71
2021/08/13 06:42:04;;;;;;;18.50;10.02;;;19.40;99.90;;;;;;5044842;28;20469;-70
2021/08/13 06:44:33;;;;;;;22.23;9.38;;;19.50;99.90;;;;;;5046172;28;20071;-72
2021/08/13 06:46:59;;;;;;;18.75;10.07;;;19.50;99.90;;;;;;5045092;28;20389;-70
2021/08/13 06:49:24;;;;;;;16.35;8.45;;;19.50;99.90;;;;;;5045626;28;20110;-70
2021/08/13 06:51:50;;;;;;;19.35;9.75;;;19.60;99.90;;;;;;5045675;28;20038;-70
2021/08/13 06:54:15;;;;;;;32.45;11.48;;;19.60;99.90;;;;;;5045436;28;20091;-69
2021/08/13 06:56:41;;;;;;;27.98;11.27;;;19.70;99.90;;;;;;5045764;28;20037;-69
2021/08/13 06:59:07;;;;;;;21.20;10.55;;;19.80;99.90;;;;;;5045566;28;20025;-70
2021/08/13 07:01:32;;;;;;;15.70;9.23;;;19.80;99.90;;;;;;5045712;28;20053;-71
2021/08/13 07:03:58;;;;;;;21.13;10.55;;;19.80;99.90;;;;;;5045378;28;20410;-72
2021/08/13 07:06:24;;;;;;;19.58;9.43;;;19.90;99.90;;;;;;5045468;28;20036;-71
2021/08/13 07:08:50;;;;;;;17.45;9.77;;;20.00;99.90;;;;;;5044836;28;20037;-72
2021/08/13 07:11:16;;;;;;;17.25;10.30;;;20.10;99.90;;;;;;5043566;28;20891;-70
2021/08/13 07:13:41;;;;;;;21.88;10.55;;;20.20;99.90;;;;;;5048170;28;20029;-70
2021/08/13 07:16:07;;;;;;;25.85;10.23;;;20.30;99.90;;;;;;5042506;28;20506;-70
2021/08/13 07:18:34;;;;;;;23.98;10.40;;;20.30;99.90;;;;;;5043723;28;20502;-70
2021/08/13 07:20:59;;;;;;;20.75;10.70;;;20.40;99.90;;;;;;5058777;28;20021;-70
2021/08/13 07:23:25;;;;;;;25.88;11.68;;;20.50;99.90;;;;;;5063497;28;20382;-72
2021/08/13 07:25:51;;;;;;;21.00;10.50;;;20.60;99.90;;;;;;5064981;28;21082;-70
2021/08/13 07:28:16;;;;;;;32.30;11.02;;;20.70;99.90;;;;;;5065063;28;20025;-71
2021/08/13 07:30:42;;;;;;;21.52;9.75;;;20.70;99.90;;;;;;5065095;28;20107;-72
2021/08/13 07:33:07;;;;;;;24.83;10.80;;;20.90;99.90;;;;;;5064824;28;20032;-71
2021/08/13 07:35:33;;;;;;;24.25;11.90;;;20.90;99.90;;;;;;5065078;28;20041;-71
2021/08/13 07:37:58;;;;;;;24.00;10.82;;;21.00;99.90;;;;;;5062869;28;20037;-71
2021/08/13 07:40:24;;;;;;;20.65;10.65;;;21.10;99.90;;;;;;5056925;28;20029;-71
2021/08/13 07:42:50;;;;;;;23.65;10.52;;;21.20;99.90;;;;;;5064714;28;20033;-71
2021/08/13 07:45:16;;;;;;;22.80;11.77;;;21.30;99.90;;;;;;5063839;28;20032;-74
2021/08/13 07:47:42;;;;;;;27.98;11.68;;;21.40;99.90;;;;;;5051283;28;20033;-71
2021/08/13 07:50:08;;;;;;;23.45;10.57;;;21.50;99.90;;;;;;5062501;28;20029;-70
2021/08/13 07:52:34;;;;;;;24.70;10.57;;;21.60;99.90;;;;;;5063393;28;20029;-71
2021/08/13 07:54:59;;;;;;;19.38;9.63;;;21.70;99.90;;;;;;5063472;28;20056;-69
2021/08/13 07:57:25;;;;;;;30.05;10.05;;;21.80;99.90;;;;;;5079708;28;20485;-72
2021/08/13 07:59:51;;;;;;;21.75;10.40;;;21.80;99.90;;;;;;5064642;28;20033;-71
2021/08/13 08:02:17;;;;;;;22.40;10.10;;;21.90;99.90;;;;;;5046607;28;20025;-71
2021/08/13 08:04:44;;;;;;;16.85;8.25;;;22.00;99.90;;;;;;5044841;28;20100;-73
2021/08/13 08:07:10;;;;;;;17.17;7.78;;;22.00;99.90;;;;;;5043989;28;20085;-69
2021/08/13 08:09:35;;;;;;;16.17;7.95;;;22.10;99.90;;;;;;5044400;28;20026;-72
2021/08/13 08:12:01;;;;;;;15.63;8.23;;;22.10;99.90;;;;;;5044719;28;20056;-72
2021/08/13 08:14:26;;;;;;;13.77;7.07;;;22.20;99.90;;;;;;5044738;28;20026;-73
2021/08/13 08:16:52;;;;;;;13.60;7.47;;;22.20;99.90;;;;;;5044242;28;20561;-70
2021/08/13 08:19:17;;;;;;;12.73;7.60;;;22.30;99.90;;;;;;5043239;28;20090;-71
2021/08/13 08:21:44;;;;;;;15.73;8.05;;;22.40;99.90;;;;;;5042735;28;20021;-73
2021/08/13 08:24:12;;;;;;;14.82;7.10;;;22.50;99.90;;;;;;5044163;28;20104;-70
2021/08/13 08:26:39;;;;;;;13.48;7.22;;;22.60;99.90;;;;;;5044256;28;20034;-71
2021/08/13 08:29:04;;;;;;;28.48;9.07;;;22.70;99.90;;;;;;5043128;28;20026;-73
2021/08/13 08:31:30;;;;;;;20.73;6.75;;;22.80;99.90;;;;;;5043299;28;20056;-70
2021/08/13 08:33:55;;;;;;;18.38;8.25;;;22.80;99.90;;;;;;5044672;28;20044;-73
2021/08/13 08:36:22;;;;;;;15.25;7.80;;;22.90;99.90;;;;;;5044556;28;20041;-71
2021/08/13 08:38:47;;;;;;;10.13;6.45;;;22.90;99.90;;;;;;5043043;28;20034;-70
2021/08/13 08:41:13;;;;;;;25.55;7.50;;;22.90;99.90;;;;;;5043032;28;20036;-70
2021/08/13 08:43:39;;;;;;;19.50;7.75;;;23.00;99.90;;;;;;5044498;28;20023;-71
2021/08/13 08:46:04;;;;;;;14.95;7.53;;;23.10;99.90;;;;;;5044117;28;20041;-74
2021/08/13 08:48:35;;;;;;;12.07;6.60;;;23.10;99.90;;;;;;5053742;28;20044;-72
2021/08/13 08:51:03;;;;;;;13.32;7.18;;;23.10;99.90;;;;;;5058982;28;20049;-74
2021/08/13 08:53:29;;;;;;;14.07;7.50;;;23.20;99.90;;;;;;5044080;28;20080;-71
2021/08/13 08:55:56;;;;;;;24.08;8.35;;;23.20;99.90;;;;;;5042980;28;20383;-72
2021/08/13 08:58:23;;;;;;;12.88;6.90;;;23.20;99.90;;;;;;5044184;28;20060;-71
2021/08/13 09:00:49;;;;;;;14.50;7.47;;;23.30;99.90;;;;;;5045374;28;20033;-75
2021/08/13 09:03:16;;;;;;;20.98;8.05;;;23.30;99.90;;;;;;5067898;28;20051;-71
2021/08/13 09:05:44;;;;;;;21.52;9.23;;;23.40;99.90;;;;;;5067719;28;20017;-72
2021/08/13 09:08:09;;;;;;;16.83;7.65;;;23.40;99.90;;;;;;5066474;28;20063;-69
2021/08/13 09:10:35;;;;;;;19.58;8.98;;;23.40;99.90;;;;;;5067522;28;20033;-72
2021/08/13 09:13:05;;;;;;;20.77;8.40;;;23.40;99.90;;;;;;5067583;28;20024;-71
2021/08/13 09:15:33;;;;;;;21.75;8.18;;;23.40;99.90;;;;;;5067831;28;20194;-70
2021/08/13 09:18:21;;;;;;;18.98;8.60;;;23.40;99.90;;;;;;5065943;28;20044;-77
2021/08/13 09:20:50;;;;;;;22.08;9.45;;;23.50;99.90;;;;;;5047617;28;20030;-70
2021/08/13 09:23:27;;;;;;;16.30;9.00;;;23.60;99.90;;;;;;5047563;28;20568;-70
2021/08/13 09:26:04;;;;;;;16.40;9.18;;;23.80;99.90;;;;;;5047760;28;20025;-71
2021/08/13 09:28:51;;;;;;;18.27;8.15;;;23.90;99.90;;;;;;5047406;28;20029;-73
2021/08/13 09:31:28;;;;;;;17.48;8.43;;;24.00;99.90;;;;;;5047185;28;20033;-70
2021/08/13 09:33:57;;;;;;;19.58;8.88;;;24.10;99.90;;;;;;5045964;28;20051;-72
2021/08/13 09:36:25;;;;;;;17.65;8.00;;;24.10;99.90;;;;;;5047164;28;20067;-70
2021/08/13 09:39:11;;;;;;;17.13;8.40;;;24.20;99.90;;;;;;5047414;28;20475;-72
2021/08/13 09:41:46;;;;;;;15.38;7.80;;;24.20;99.90;;;;;;5047538;28;20566;-71
2021/08/13 09:44:13;;;;;;;13.40;6.72;;;24.10;99.90;;;;;;5066976;28;20033;-71
2021/08/13 09:47:04;;;;;;;11.75;6.53;;;24.20;99.90;;;;;;5066950;28;20027;-72
2021/08/13 09:49:31;;;;;;;12.82;6.00;;;24.30;99.90;;;;;;5067422;28;20484;-71
2021/08/13 09:52:13;;;;;;;9.93;5.63;;;24.30;99.90;;;;;;5066945;28;20021;-70
2021/08/13 09:54:39;;;;;;;9.90;5.13;;;24.30;99.90;;;;;;5066836;28;20021;-68
2021/08/13 09:57:09;;;;;;;12.50;5.18;;;24.40;99.90;;;;;;5065350;28;20100;-70
2021/08/13 09:59:35;;;;;;;11.05;6.38;;;24.30;99.90;;;;;;5066518;28;20037;-69
2021/08/13 10:02:13;;;;;;;18.20;6.22;;;24.40;99.90;;;;;;5066776;28;20040;-68
2021/08/13 10:04:39;;;;;;;11.27;6.53;;;24.50;99.90;;;;;;5066817;28;20070;-69
2021/08/13 10:07:06;;;;;;;9.30;5.38;;;24.50;99.90;;;;;;5066450;28;20534;-69
2021/08/13 10:09:31;;;;;;;13.70;5.57;;;24.50;99.90;;;;;;5066600;28;20393;-69
2021/08/13 10:12:00;;;;;;;12.98;6.18;;;24.40;99.90;;;;;;5066736;28;20040;-70
2021/08/13 10:14:30;;;;;;;9.38;5.63;;;24.30;99.90;;;;;;5066536;28;20070;-71
2021/08/13 10:17:19;;;;;;;10.88;5.25;;;24.30;99.90;;;;;;5066456;28;20056;-69
2021/08/13 10:19:46;;;;;;;12.65;5.20;;;24.30;99.90;;;;;;5061633;28;20041;-72
2021/08/13 10:22:13;;;;;;;11.85;5.93;;;24.30;99.90;;;;;;5046439;28;20037;-70
2021/08/13 10:24:40;;;;;;;8.63;4.78;;;24.50;99.90;;;;;;5046386;28;20038;-68
2021/08/13 10:27:07;;;;;;;7.05;4.03;;;24.70;99.90;;;;;;5046326;28;20021;-70
2021/08/13 10:29:33;;;;;;;13.43;5.78;;;25.00;99.90;;;;;;5046280;28;20022;-70
2021/08/13 10:31:59;;;;;;;8.00;4.63;;;25.20;99.90;;;;;;5046307;28;20045;-75
2021/08/13 10:34:26;;;;;;;13.90;4.93;;;25.30;99.90;;;;;;5046410;28;20371;-72
2021/08/13 10:36:53;;;;;;;9.88;5.25;;;25.30;99.90;;;;;;5044818;28;20112;-72
2021/08/13 10:39:21;;;;;;;13.48;5.38;;;25.30;99.90;;;;;;5046288;28;20024;-72
2021/08/13 10:41:58;;;;;;;11.68;5.57;;;25.30;99.90;;;;;;5045870;28;20025;-68
2021/08/13 10:44:32;;;;;;;13.15;5.72;;;25.30;99.90;;;;;;5046230;28;20416;-72
2021/08/13 10:47:01;;;;;;;11.95;6.07;;;25.40;99.90;;;;;;5046202;28;20025;-72
2021/08/13 10:49:27;;;;;;;17.52;5.18;;;25.60;99.90;;;;;;5046045;28;20024;-71
2021/08/13 10:52:07;;;;;;;10.55;4.93;;;25.80;99.90;;;;;;5046007;28;20022;-73
2021/08/13 10:54:41;;;;;;;11.48;5.40;;;25.90;99.90;;;;;;5045658;28;20056;-72
2021/08/13 10:57:07;;;;;;;;;;;26.00;99.90;;;;;;5046171;28;20034;-67
2021/08/13 10:59:53;;;;;;;14.00;5.45;;;25.90;99.90;;;;;;5045749;28;19905;-73
2021/08/13 11:02:19;;;;;;;10.32;5.20;;;25.80;99.90;;;;;;5045708;28;20122;-67
2021/08/13 11:04:47;;;;;;;10.50;6.13;;;25.70;99.90;;;;;;5045816;28;20490;-72
2021/08/13 11:07:13;;;;;;;12.15;5.07;;;25.60;99.90;;;;;;5045396;28;20018;-68
2021/08/13 11:09:39;;;;;;;10.73;5.85;;;25.60;99.90;;;;;;5045656;28;20064;-67
2021/08/13 11:12:15;;;;;;;11.40;5.82;;;25.60;99.90;;;;;;5045302;28;20022;-72
2021/08/13 11:14:48;;;;;;;9.52;4.65;;;25.70;99.90;;;;;;5045397;28;20544;-70
2021/08/13 11:17:43;;;;;;;6.80;4.33;;;25.80;99.90;;;;;;5045006;28;20055;-71
2021/08/13 11:20:14;;;;;;;7.78;3.85;;;26.00;99.90;;;;;;5045197;28;20094;-73
2021/08/13 11:22:41;;;;;;;10.32;5.10;;;26.10;99.90;;;;;;5045196;28;20040;-69
2021/08/13 11:25:09;;;;;;;7.45;3.88;;;26.20;99.90;;;;;;5044460;28;20077;-71
2021/08/13 11:27:35;;;;;;;7.18;3.97;;;26.50;99.90;;;;;;5043830;28;20079;-70
2021/08/13 11:30:03;;;;;;;11.20;4.55;;;26.60;99.90;;;;;;5044119;28;20096;-70
2021/08/13 11:32:32;;;;;;;7.78;3.83;;;26.70;99.90;;;;;;5045037;28;20025;-73
2021/08/13 11:35:04;;;;;;;7.22;3.90;;;26.90;99.90;;;;;;5045243;28;20018;-75
2021/08/13 11:37:41;;;;;;;8.05;4.55;;;26.80;99.90;;;;;;5044830;28;20033;-72
2021/08/13 11:40:13;;;;;;;7.80;4.28;;;26.80;99.90;;;;;;5044764;28;20022;-74
2021/08/13 11:42:53;;;;;;;8.05;3.80;;;26.60;99.90;;;;;;5044313;28;20037;-72
2021/08/13 11:45:20;;;;;;;6.00;3.80;;;26.50;99.90;;;;;;5043589;28;20060;-73
2021/08/13 11:47:53;;;;;;;8.60;3.85;;;26.40;99.90;;;;;;5044966;28;20025;-71
2021/08/13 11:50:20;;;;;;;7.05;3.83;;;26.30;99.90;;;;;;5043497;28;20093;-76
2021/08/13 11:52:47;;;;;;;7.60;3.90;;;26.40;99.90;;;;;;5044629;28;20025;-70
2021/08/13 11:55:27;;;;;;;6.88;4.15;;;26.40;99.90;;;;;;5044575;28;20045;-70
2021/08/13 11:57:58;;;;;;;8.85;4.57;;;26.30;99.90;;;;;;5043556;28;20034;-71
2021/08/13 12:00:26;;;;;;;7.25;4.05;;;26.20;99.90;;;;;;5044850;28;20044;-72
2021/08/13 12:03:05;;;;;;;8.85;4.82;;;26.30;99.90;;;;;;5060204;28;20026;-73
2021/08/13 12:05:35;;;;;;;8.45;4.22;;;26.50;99.90;;;;;;5044917;28;20045;-73
2021/08/13 12:08:04;;;;;;;8.65;4.55;;;26.70;99.90;;;;;;5044558;28;20022;-75
2021/08/13 12:10:32;;;;;;;10.48;4.90;;;27.00;99.90;;;;;;5044648;28;20044;-71
2021/08/13 12:13:08;;;;;;;7.60;4.68;;;27.20;99.90;;;;;;5044327;28;20022;-73
2021/08/13 12:15:39;;;;;;;8.60;4.18;;;27.20;99.90;;;;;;5044594;28;20029;-71
2021/08/13 12:18:06;;;;;;;8.57;4.32;;;27.20;99.90;;;;;;5043567;28;20053;-77
2021/08/13 12:20:33;;;;;;;13.48;4.47;;;27.00;99.90;;;;;;5044621;28;20105;-75
2021/08/13 12:23:10;;;;;;;10.95;5.20;;;27.00;99.90;;;;;;5043334;28;20075;-70
2021/08/13 12:25:36;;;;;;;13.75;5.15;;;27.00;99.90;;;;;;5044554;28;20037;-73
2021/08/13 12:28:03;;;;;;;10.20;4.72;;;26.90;99.90;;;;;;5044534;28;20070;-74
2021/08/13 12:30:29;;;;;;;9.55;4.30;;;26.80;99.90;;;;;;5043077;28;20076;-69
2021/08/13 12:32:57;;;;;;;8.95;4.22;;;26.80;99.90;;;;;;5044131;28;20022;-73
2021/08/13 12:35:24;;;;;;;8.60;4.78;;;26.70;99.90;;;;;;5044545;28;20060;-74
2021/08/13 12:37:53;;;;;;;9.68;4.38;;;26.70;99.90;;;;;;5048338;28;20029;-74
2021/08/13 12:40:19;;;;;;;7.57;4.32;;;26.70;99.90;;;;;;5048070;28;20021;-73
2021/08/13 12:42:47;;;;;;;6.22;3.97;;;26.60;99.90;;;;;;5048222;28;20602;-73